Terminal Aerodrome Forecast
Issued by NWS

Home | Current Version | Previous Version | Text Only | Print | Product List | Glossary On
Versions: 1 2 3 4 5 6 7 8 9 10 11 12 13
000
FTUS46 KSGX 301455 AAA
TAFSNA
TAF AMD
KSNA 301455Z 3015/0112 VRB04KT 5SM BR BKN004
     FM301545 VRB04KT 6SM BR SCT005
     FM301900 23010KT P6SM SCT150
     FM302100 22010KT P6SM SCT150
     FM010600 22005KT P6SM SCT012=

USA.gov is the U.S. government's official web portal to all federal, state and local government web resources and services.